createdAt,value
2023-03-14T00:01:26.485Z,96945.00
2023-03-14T00:03:00.046Z,96942.00
2023-03-14T00:04:32.256Z,96935.00
2023-03-14T00:06:06.421Z,96938.00
2023-03-14T00:07:41.683Z,96923.00
2023-03-14T00:09:15.362Z,96920.00
2023-03-14T00:10:49.805Z,96926.00
2023-03-14T00:12:22.963Z,96923.00
2023-03-14T00:13:56.183Z,96915.00
2023-03-14T00:15:29.434Z,96924.00
2023-03-14T00:17:02.552Z,96910.00
2023-03-14T00:18:35.186Z,96912.00
2023-03-14T00:20:12.240Z,96908.00
2023-03-14T00:21:45.407Z,96910.00
2023-03-14T00:23:18.506Z,96913.00
2023-03-14T00:24:52.449Z,96909.00
2023-03-14T00:26:27.597Z,96909.00
2023-03-14T00:28:00.768Z,96922.00
2023-03-14T00:29:34.892Z,96927.00
2023-03-14T00:31:11.095Z,96928.00
2023-03-14T00:32:44.339Z,96928.00
2023-03-14T00:34:16.531Z,96935.00
2023-03-14T00:35:56.233Z,96929.00
2023-03-14T00:37:29.864Z,96940.00
2023-03-14T00:39:03.261Z,96945.00
2023-03-14T00:40:41.621Z,96951.00
2023-03-14T00:42:16.560Z,96947.00
2023-03-14T00:43:49.107Z,96941.00
2023-03-14T00:45:22.258Z,96925.00
2023-03-14T00:46:55.572Z,96928.00
2023-03-14T00:48:29.659Z,96926.00
2023-03-14T00:50:03.187Z,96926.00
2023-03-14T00:51:36.311Z,96935.00
2023-03-14T00:53:09.685Z,96923.00
2023-03-14T00:54:43.081Z,96921.00
2023-03-14T00:56:16.795Z,96925.00
2023-03-14T00:57:51.389Z,96912.00
2023-03-14T00:59:24.608Z,96914.00
2023-03-14T01:00:58.041Z,96901.00
2023-03-14T01:02:31.062Z,96913.00
2023-03-14T01:04:05.457Z,96906.00
2023-03-14T01:05:39.686Z,96902.00
2023-03-14T01:07:12.790Z,96903.00
2023-03-14T01:08:47.207Z,96889.00
2023-03-14T01:10:20.597Z,96904.00
2023-03-14T01:11:53.861Z,96898.00
2023-03-14T01:13:28.601Z,96890.00
2023-03-14T01:15:01.732Z,96907.00
2023-03-14T01:16:37.087Z,96893.00
2023-03-14T01:18:10.295Z,96901.00
2023-03-14T01:19:43.439Z,96900.00
2023-03-14T01:21:20.900Z,96899.00
2023-03-14T01:22:54.363Z,96894.00
2023-03-14T01:24:27.612Z,96886.00
2023-03-14T01:26:00.676Z,96886.00
2023-03-14T01:27:34.110Z,96897.00
2023-03-14T01:29:08.784Z,96896.00
2023-03-14T01:30:44.898Z,96898.00
2023-03-14T01:32:19.357Z,96901.00
2023-03-14T01:33:52.997Z,96913.00
2023-03-14T01:35:26.107Z,96938.00
2023-03-14T01:37:01.547Z,96999.00
2023-03-14T01:38:38.102Z,97037.00
2023-03-14T01:40:17.272Z,97022.00
2023-03-14T01:41:50.488Z,97012.00
2023-03-14T01:43:25.269Z,96983.00
2023-03-14T01:45:02.346Z,96969.00
2023-03-14T01:46:41.291Z,96977.00
2023-03-14T01:48:14.471Z,96977.00
2023-03-14T01:49:51.856Z,96971.00
2023-03-14T01:51:31.656Z,96975.00
2023-03-14T01:53:07.566Z,96968.00
2023-03-14T01:54:44.832Z,96962.00
2023-03-14T01:56:19.164Z,96956.00
2023-03-14T01:57:59.072Z,96951.00
2023-03-14T01:59:34.585Z,96949.00
2023-03-14T02:01:11.384Z,96945.00
2023-03-14T02:02:51.176Z,96954.00
2023-03-14T02:04:34.614Z,96936.00
2023-03-14T02:06:10.055Z,96930.00
2023-03-14T02:07:52.255Z,96920.00
2023-03-14T02:09:30.774Z,96928.00
2023-03-14T02:11:05.537Z,96932.00
2023-03-14T02:13:06.600Z,96930.00
2023-03-14T02:14:57.569Z,96928.00
2023-03-14T02:16:38.146Z,96928.00
2023-03-14T02:18:42.663Z,96929.00
2023-03-14T02:20:44.755Z,96924.00
2023-03-14T02:22:18.654Z,96934.00
2023-03-14T02:24:17.659Z,96932.00
2023-03-14T02:26:07.540Z,96931.00
2023-03-14T02:27:42.690Z,96919.00
2023-03-14T02:29:15.860Z,96929.00
2023-03-14T02:30:49.850Z,96912.00
2023-03-14T02:32:27.027Z,96913.00
2023-03-14T02:34:01.812Z,96909.00
2023-03-14T02:35:42.421Z,96907.00
2023-03-14T02:37:19.516Z,96906.00
2023-03-14T02:39:04.127Z,96910.00
2023-03-14T02:40:37.354Z,96903.00
2023-03-14T02:42:10.513Z,96903.00
2023-03-14T02:43:45.244Z,96900.00
2023-03-14T02:45:39.760Z,96902.00
2023-03-14T02:47:13.080Z,96896.00
2023-03-14T02:48:51.894Z,96895.00
2023-03-14T02:50:29.168Z,96891.00
2023-03-14T02:52:03.176Z,96886.00
2023-03-14T02:53:39.285Z,96886.00
2023-03-14T02:55:21.718Z,96882.00
2023-03-14T02:56:55.264Z,96887.00
2023-03-14T02:58:30.175Z,96876.00
2023-03-14T03:00:13.130Z,96872.00
2023-03-14T03:01:47.393Z,96872.00
2023-03-14T03:03:20.458Z,96869.00
2023-03-14T03:04:55.635Z,96870.00
2023-03-14T03:06:28.899Z,96866.00
2023-03-14T03:08:01.420Z,96866.00
2023-03-14T03:09:34.592Z,96863.00
2023-03-14T03:11:08.319Z,96866.00
2023-03-14T03:12:41.256Z,96862.00
2023-03-14T03:14:14.445Z,96869.00
2023-03-14T03:15:49.109Z,96862.00
2023-03-14T03:17:21.193Z,96869.00
2023-03-14T03:18:54.399Z,96865.00
2023-03-14T03:20:27.884Z,96865.00
2023-03-14T03:22:01.214Z,96864.00
2023-03-14T03:23:34.331Z,96857.00
2023-03-14T03:25:10.365Z,96863.00
2023-03-14T03:26:43.740Z,96860.00
2023-03-14T03:28:17.895Z,96864.00
2023-03-14T03:29:51.157Z,96857.00
2023-03-14T03:31:25.680Z,96853.00
2023-03-14T03:32:57.847Z,96862.00
2023-03-14T03:34:31.448Z,96865.00
2023-03-14T03:36:04.272Z,96859.00
2023-03-14T03:37:41.439Z,96857.00
2023-03-14T03:39:14.551Z,96854.00
2023-03-14T03:40:47.797Z,96853.00
2023-03-14T03:42:21.528Z,96841.00
2023-03-14T03:43:55.297Z,96849.00
2023-03-14T03:45:28.955Z,96837.00
2023-03-14T03:47:04.789Z,96842.00
2023-03-14T03:48:38.134Z,96832.00
2023-03-14T03:50:12.795Z,96831.00
2023-03-14T03:51:45.965Z,96830.00
2023-03-14T03:53:32.322Z,96848.00
2023-03-14T03:55:07.981Z,96834.00
2023-03-14T03:56:41.117Z,96840.00
2023-03-14T03:58:14.389Z,96844.00
2023-03-14T03:59:47.523Z,96841.00
2023-03-14T04:01:20.592Z,96847.00
2023-03-14T04:02:58.401Z,96839.00
2023-03-14T04:04:31.789Z,96847.00
2023-03-14T04:06:12.832Z,96840.00
2023-03-14T04:07:47.075Z,96840.00
2023-03-14T04:09:24.304Z,96828.00
2023-03-14T04:11:26.232Z,96835.00
2023-03-14T04:13:12.830Z,96840.00
2023-03-14T04:14:47.886Z,96843.00
2023-03-14T04:16:28.097Z,96842.00
2023-03-14T04:18:09.735Z,96839.00
2023-03-14T04:19:43.154Z,96849.00
2023-03-14T04:21:17.466Z,96851.00
2023-03-14T04:22:56.109Z,96853.00
2023-03-14T04:24:29.230Z,96833.00
2023-03-14T04:26:03.669Z,96833.00
2023-03-14T04:27:39.400Z,96828.00
2023-03-14T04:29:19.008Z,96823.00
2023-03-14T04:30:53.097Z,96826.00
2023-03-14T04:32:29.631Z,96830.00
2023-03-14T04:34:05.392Z,96822.00
2023-03-14T04:35:43.312Z,96822.00
2023-03-14T04:37:19.024Z,96819.00
2023-03-14T04:38:52.268Z,96809.00
2023-03-14T04:40:27.728Z,96812.00
2023-03-14T04:42:06.696Z,96804.00
2023-03-14T04:43:40.252Z,96808.00
2023-03-14T04:45:15.420Z,96803.00
2023-03-14T04:46:49.608Z,96800.00
2023-03-14T04:48:23.641Z,96797.00
2023-03-14T04:49:58.248Z,96797.00
2023-03-14T04:51:32.380Z,96804.00
2023-03-14T04:53:06.184Z,96801.00
2023-03-14T04:54:39.386Z,96793.00
2023-03-14T04:56:13.835Z,96791.00
2023-03-14T04:57:48.877Z,96788.00
2023-03-14T04:59:21.974Z,96791.00
2023-03-14T05:00:57.092Z,96774.00
2023-03-14T05:02:48.756Z,96785.00
2023-03-14T05:04:33.754Z,96783.00
2023-03-14T05:06:26.779Z,96780.00
2023-03-14T05:08:15.172Z,96776.00
2023-03-14T05:10:07.533Z,96763.00
2023-03-14T05:11:59.411Z,96768.00
2023-03-14T05:13:51.150Z,96766.00
2023-03-14T05:15:38.688Z,96758.00
2023-03-14T05:17:21.987Z,96765.00
2023-03-14T05:19:12.439Z,96764.00
2023-03-14T05:20:56.932Z,96772.00
2023-03-14T05:22:54.388Z,96765.00
2023-03-14T05:24:59.536Z,96768.00
2023-03-14T05:26:45.411Z,96757.00
2023-03-14T05:28:37.488Z,96752.00
2023-03-14T05:30:19.530Z,96752.00
2023-03-14T05:32:11.904Z,96750.00
2023-03-14T05:34:02.951Z,96748.00
2023-03-14T05:35:49.094Z,96750.00
2023-03-14T05:37:41.152Z,96744.00
2023-03-14T05:39:24.773Z,96756.00
2023-03-14T05:41:19.821Z,96762.00
2023-03-14T05:43:22.268Z,96759.00
2023-03-14T05:45:10.891Z,96744.00
2023-03-14T05:47:06.841Z,96744.00
2023-03-14T05:48:58.684Z,96757.00
2023-03-14T05:50:57.948Z,96747.00
2023-03-14T05:52:41.988Z,96742.00
2023-03-14T05:54:45.369Z,96756.00
2023-03-14T05:56:44.506Z,96750.00
2023-03-14T05:58:17.628Z,96751.00
2023-03-14T06:00:17.775Z,96767.00
2023-03-14T06:02:02.909Z,96756.00
2023-03-14T06:03:44.712Z,96747.00
2023-03-14T06:05:18.703Z,96760.00
2023-03-14T06:06:52.470Z,96752.00
2023-03-14T06:08:25.785Z,96747.00
2023-03-14T06:10:00.535Z,96749.00
2023-03-14T06:11:33.741Z,96750.00
2023-03-14T06:13:07.091Z,96748.00
2023-03-14T06:14:41.356Z,96752.00
2023-03-14T06:16:15.255Z,96741.00
2023-03-14T06:17:49.000Z,96748.00
2023-03-14T06:19:23.152Z,96742.00
2023-03-14T06:20:57.255Z,96746.00
2023-03-14T06:22:33.151Z,96751.00
2023-03-14T06:24:06.730Z,96743.00
2023-03-14T06:25:48.292Z,96756.00
2023-03-14T06:27:21.437Z,96751.00
2023-03-14T06:29:02.117Z,96757.00
2023-03-14T06:30:35.303Z,96756.00
2023-03-14T06:32:08.832Z,96753.00
2023-03-14T06:33:43.521Z,96749.00
2023-03-14T06:35:17.376Z,96751.00
2023-03-14T06:36:51.371Z,96755.00
2023-03-14T06:38:24.635Z,96763.00
2023-03-14T06:40:01.226Z,96743.00
2023-03-14T06:41:53.645Z,96751.00
2023-03-14T06:43:26.892Z,96749.00
2023-03-14T06:45:00.000Z,96745.00
2023-03-14T06:46:33.967Z,96750.00
2023-03-14T06:48:08.037Z,96746.00
2023-03-14T06:49:46.088Z,96752.00
2023-03-14T06:51:20.106Z,96747.00
2023-03-14T06:52:54.885Z,96736.00
2023-03-14T06:54:31.811Z,96757.00
2023-03-14T06:56:05.481Z,96757.00
2023-03-14T06:57:41.526Z,96750.00
2023-03-14T06:59:14.751Z,96753.00
2023-03-14T07:00:48.707Z,96753.00
2023-03-14T07:02:41.964Z,96762.00
2023-03-14T07:04:25.143Z,96745.00
2023-03-14T07:05:59.309Z,96741.00
2023-03-14T07:07:32.597Z,96745.00
2023-03-14T07:09:05.932Z,96740.00
2023-03-14T07:10:41.056Z,96757.00
2023-03-14T07:12:14.955Z,96753.00
2023-03-14T07:13:49.785Z,96748.00
2023-03-14T07:15:22.892Z,96761.00
2023-03-14T07:17:00.202Z,96756.00
2023-03-14T07:18:33.403Z,96758.00
2023-03-14T07:20:11.854Z,96766.00
2023-03-14T07:21:45.226Z,96771.00
2023-03-14T07:23:20.535Z,96770.00
2023-03-14T07:24:56.129Z,96774.00
2023-03-14T07:26:30.921Z,96768.00
2023-03-14T07:28:04.125Z,96771.00
2023-03-14T07:29:38.699Z,96772.00
2023-03-14T07:31:12.231Z,96768.00
2023-03-14T07:32:45.921Z,96765.00
2023-03-14T07:34:20.438Z,96778.00
2023-03-14T07:35:53.812Z,96776.00
2023-03-14T07:37:26.912Z,96782.00
2023-03-14T07:39:00.302Z,96778.00
2023-03-14T07:40:42.386Z,96770.00
2023-03-14T07:42:16.536Z,96775.00
2023-03-14T07:43:49.619Z,96771.00
2023-03-14T07:45:25.132Z,96779.00
2023-03-14T07:46:58.522Z,96781.00
2023-03-14T07:48:31.909Z,96778.00
2023-03-14T07:50:06.036Z,96773.00
2023-03-14T07:51:39.453Z,96773.00
2023-03-14T07:53:12.534Z,96779.00
2023-03-14T07:54:45.872Z,96780.00
2023-03-14T07:56:19.150Z,96780.00
2023-03-14T07:57:52.718Z,96791.00
2023-03-14T07:59:25.865Z,96781.00
2023-03-14T08:01:01.343Z,96793.00
2023-03-14T08:02:34.452Z,96798.00
2023-03-14T08:04:07.700Z,96781.00
2023-03-14T08:05:41.740Z,96784.00
2023-03-14T08:07:14.910Z,96802.00
2023-03-14T08:08:48.269Z,96793.00
2023-03-14T08:10:24.880Z,96793.00
2023-03-14T08:11:58.830Z,96795.00
2023-03-14T08:13:32.016Z,96794.00
2023-03-14T08:15:06.142Z,96796.00
2023-03-14T08:16:40.993Z,96792.00
2023-03-14T08:18:14.044Z,96795.00
2023-03-14T08:19:47.176Z,96788.00
2023-03-14T08:21:20.399Z,96791.00
2023-03-14T08:22:54.257Z,96789.00
2023-03-14T08:24:27.525Z,96789.00
2023-03-14T08:26:00.731Z,96801.00
2023-03-14T08:27:34.038Z,96793.00
2023-03-14T08:29:08.116Z,96794.00
2023-03-14T08:30:41.410Z,96802.00
2023-03-14T08:32:18.809Z,96796.00
2023-03-14T08:33:53.126Z,96803.00
2023-03-14T08:35:27.316Z,96797.00
2023-03-14T08:37:00.799Z,96799.00
2023-03-14T08:38:34.245Z,96804.00
2023-03-14T08:40:10.969Z,96806.00
2023-03-14T08:41:45.637Z,96810.00
2023-03-14T08:43:18.767Z,96802.00
2023-03-14T08:44:53.261Z,96811.00
2023-03-14T08:46:26.804Z,96813.00
2023-03-14T08:48:01.364Z,96812.00
2023-03-14T08:49:34.774Z,96805.00
2023-03-14T08:51:09.219Z,96810.00
2023-03-14T08:52:42.789Z,96818.00
2023-03-14T08:54:16.476Z,96803.00
2023-03-14T08:55:49.884Z,96811.00
2023-03-14T08:57:28.234Z,96806.00
2023-03-14T08:59:01.481Z,96819.00
2023-03-14T09:00:34.762Z,96806.00
2023-03-14T09:02:08.153Z,96814.00
2023-03-14T09:03:42.831Z,96809.00
2023-03-14T09:05:16.041Z,96808.00
2023-03-14T09:06:49.262Z,96816.00
2023-03-14T09:08:22.438Z,96812.00
2023-03-14T09:09:55.583Z,96810.00
2023-03-14T09:11:28.900Z,96807.00
2023-03-14T09:13:02.019Z,96810.00
2023-03-14T09:14:35.409Z,96809.00
2023-03-14T09:16:10.386Z,96806.00
2023-03-14T09:17:45.437Z,96812.00
2023-03-14T09:19:20.059Z,96814.00
2023-03-14T09:20:53.171Z,96816.00
2023-03-14T09:22:26.996Z,96807.00
2023-03-14T09:24:00.111Z,96815.00
2023-03-14T09:25:33.252Z,96825.00
2023-03-14T09:27:06.380Z,96821.00
2023-03-14T09:28:39.561Z,96821.00
2023-03-14T09:30:13.959Z,96821.00
2023-03-14T09:31:47.088Z,96832.00
2023-03-14T09:33:20.927Z,96833.00
2023-03-14T09:34:55.450Z,96835.00
2023-03-14T09:36:28.730Z,96833.00
2023-03-14T09:38:01.886Z,96824.00
2023-03-14T09:39:35.029Z,96841.00
2023-03-14T09:41:19.718Z,96829.00
2023-03-14T09:42:55.898Z,96844.00
2023-03-14T09:44:33.791Z,96828.00
2023-03-14T09:46:10.077Z,96839.00
2023-03-14T09:47:58.240Z,96843.00
2023-03-14T09:49:36.095Z,96841.00
2023-03-14T09:51:18.254Z,96853.00
2023-03-14T09:53:01.275Z,96847.00
2023-03-14T09:54:39.181Z,96852.00
2023-03-14T09:56:19.053Z,96857.00
2023-03-14T09:57:58.646Z,96861.00
2023-03-14T09:59:32.177Z,96871.00
2023-03-14T10:01:05.927Z,96872.00
2023-03-14T10:02:39.164Z,96870.00
2023-03-14T10:04:18.761Z,96880.00
2023-03-14T10:05:52.510Z,96884.00
2023-03-14T10:07:31.443Z,96891.00
2023-03-14T10:09:06.519Z,96894.00
2023-03-14T10:10:40.178Z,96901.00
2023-03-14T10:12:14.311Z,96925.00
2023-03-14T10:14:04.935Z,96951.00
2023-03-14T10:15:40.321Z,96964.00
2023-03-14T10:17:16.730Z,96967.00
2023-03-14T10:18:50.256Z,96982.00
2023-03-14T10:20:36.988Z,96997.00
2023-03-14T10:22:17.299Z,97002.00
2023-03-14T10:23:51.795Z,97010.00
2023-03-14T10:25:31.193Z,97015.00
2023-03-14T10:27:10.677Z,97033.00
2023-03-14T10:28:48.183Z,97033.00
2023-03-14T10:30:36.749Z,97027.00
2023-03-14T10:32:22.916Z,97047.00
2023-03-14T10:34:04.902Z,97042.00
2023-03-14T10:35:38.737Z,97059.00
2023-03-14T10:37:23.774Z,97064.00
2023-03-14T10:39:24.645Z,97072.00
2023-03-14T10:40:59.531Z,97080.00
2023-03-14T10:42:36.644Z,97088.00
2023-03-14T10:44:14.376Z,97089.00
2023-03-14T10:45:58.737Z,97097.00
2023-03-14T10:47:34.023Z,97098.00
2023-03-14T10:49:08.358Z,97108.00
2023-03-14T10:50:51.726Z,97114.00
2023-03-14T10:52:45.666Z,97132.00
2023-03-14T10:54:25.843Z,97140.00
2023-03-14T10:55:59.687Z,97144.00
2023-03-14T10:57:32.909Z,97146.00
2023-03-14T10:59:14.753Z,97150.00
2023-03-14T11:00:54.325Z,97152.00
2023-03-14T11:02:55.860Z,97163.00
2023-03-14T11:04:56.864Z,97182.00
2023-03-14T11:06:42.973Z,97194.00
2023-03-14T11:08:26.404Z,97193.00
2023-03-14T11:10:10.289Z,97205.00
2023-03-14T11:11:49.520Z,97208.00
2023-03-14T11:13:28.702Z,97217.00
2023-03-14T11:15:07.855Z,97220.00
2023-03-14T11:16:55.402Z,97226.00
2023-03-14T11:19:10.016Z,97229.00
2023-03-14T11:20:54.351Z,97234.00
2023-03-14T11:22:41.424Z,97247.00
2023-03-14T11:24:41.649Z,97272.00
2023-03-14T11:26:31.309Z,97285.00
2023-03-14T11:28:19.446Z,97283.00
2023-03-14T11:30:02.804Z,97294.00
2023-03-14T11:31:42.444Z,97289.00
2023-03-14T11:33:18.248Z,97285.00
2023-03-14T11:34:54.806Z,97303.00
2023-03-14T11:36:34.052Z,97311.00
2023-03-14T11:38:30.155Z,97302.00
2023-03-14T11:40:16.845Z,97321.00
2023-03-14T11:41:54.694Z,97333.00
2023-03-14T11:43:32.743Z,97345.00
2023-03-14T11:45:16.290Z,97353.00
2023-03-14T11:46:58.786Z,97347.00
2023-03-14T11:48:43.674Z,97355.00
2023-03-14T11:50:22.367Z,97357.00
2023-03-14T11:52:01.649Z,97355.00
2023-03-14T11:53:50.633Z,97360.00
2023-03-14T11:55:31.113Z,97360.00
2023-03-14T11:57:12.345Z,97371.00
2023-03-14T11:58:57.595Z,97370.00
2023-03-14T12:00:32.621Z,97389.00
2023-03-14T12:02:16.016Z,97392.00
2023-03-14T12:04:00.844Z,97388.00
2023-03-14T12:05:56.303Z,97402.00
2023-03-14T12:07:41.951Z,97416.00
2023-03-14T12:09:17.720Z,97418.00
2023-03-14T12:10:55.247Z,97424.00
2023-03-14T12:12:31.999Z,97433.00
2023-03-14T12:14:19.143Z,97425.00
2023-03-14T12:15:59.436Z,97446.00
2023-03-14T12:17:40.943Z,97450.00
2023-03-14T12:19:35.362Z,97465.00
2023-03-14T12:21:12.726Z,97465.00
2023-03-14T12:22:49.896Z,97473.00
2023-03-14T12:24:27.977Z,97484.00
2023-03-14T12:26:21.020Z,97495.00
2023-03-14T12:28:22.084Z,97498.00
2023-03-14T12:30:03.936Z,97520.00
2023-03-14T12:31:43.530Z,97521.00
2023-03-14T12:33:35.204Z,97537.00
2023-03-14T12:35:37.805Z,97537.00
2023-03-14T12:37:31.912Z,97539.00
2023-03-14T12:39:24.392Z,97547.00
2023-03-14T12:41:07.746Z,97554.00
2023-03-14T12:42:58.970Z,97564.00
2023-03-14T12:44:46.730Z,97563.00
2023-03-14T12:46:27.205Z,97564.00
2023-03-14T12:48:12.759Z,97574.00
2023-03-14T12:49:48.507Z,97582.00
2023-03-14T12:51:31.692Z,97580.00
2023-03-14T12:54:08.867Z,97587.00
2023-03-14T12:55:48.927Z,97606.00
2023-03-14T12:57:35.100Z,97607.00
2023-03-14T12:59:31.524Z,97609.00
2023-03-14T13:01:12.533Z,97616.00
2023-03-14T13:02:48.993Z,97617.00
2023-03-14T13:04:38.968Z,97630.00
2023-03-14T13:06:13.870Z,97624.00
2023-03-14T13:08:11.539Z,97629.00
2023-03-14T13:09:57.540Z,97622.00
2023-03-14T13:11:30.843Z,97627.00
2023-03-14T13:13:16.304Z,97633.00
2023-03-14T13:14:53.278Z,97639.00
2023-03-14T13:16:29.978Z,97636.00
2023-03-14T13:18:12.786Z,97631.00
2023-03-14T13:19:52.233Z,97641.00
2023-03-14T13:21:29.350Z,97636.00
2023-03-14T13:23:02.865Z,97636.00
2023-03-14T13:24:37.139Z,97643.00
2023-03-14T13:26:16.609Z,97645.00
2023-03-14T13:27:50.449Z,97652.00
2023-03-14T13:29:27.539Z,97660.00
2023-03-14T13:31:04.290Z,97668.00
2023-03-14T13:32:46.178Z,97671.00
2023-03-14T13:34:20.853Z,97667.00
2023-03-14T13:35:59.957Z,97677.00
2023-03-14T13:37:33.253Z,97666.00
2023-03-14T13:39:13.860Z,97680.00
2023-03-14T13:40:48.703Z,97688.00
2023-03-14T13:42:20.770Z,97697.00
2023-03-14T13:44:00.144Z,97714.00
2023-03-14T13:45:33.590Z,97734.00
2023-03-14T13:47:15.916Z,97743.00
2023-03-14T13:48:56.583Z,97751.00
2023-03-14T13:50:30.272Z,97769.00
2023-03-14T13:52:04.256Z,97770.00
2023-03-14T13:53:46.261Z,97780.00
2023-03-14T13:55:21.293Z,97786.00
2023-03-14T13:57:02.897Z,97804.00
2023-03-14T13:58:41.772Z,97788.00
2023-03-14T14:00:27.500Z,97813.00
2023-03-14T14:02:05.405Z,97815.00
2023-03-14T14:03:42.591Z,97808.00
2023-03-14T14:05:18.040Z,97818.00
2023-03-14T14:06:58.453Z,97827.00
2023-03-14T14:08:32.151Z,97820.00
2023-03-14T14:10:06.461Z,97835.00
2023-03-14T14:11:59.272Z,97835.00
2023-03-14T14:13:37.939Z,97842.00
2023-03-14T14:15:20.376Z,97844.00
2023-03-14T14:16:55.055Z,97845.00
2023-03-14T14:18:31.783Z,97842.00
2023-03-14T14:20:09.936Z,97846.00
2023-03-14T14:21:44.902Z,97853.00
2023-03-14T14:23:25.779Z,97854.00
2023-03-14T14:24:59.197Z,97854.00
2023-03-14T14:26:33.219Z,97850.00
2023-03-14T14:28:22.805Z,97859.00
2023-03-14T14:30:03.072Z,97872.00
2023-03-14T14:31:36.318Z,97875.00
2023-03-14T14:33:21.520Z,97871.00
2023-03-14T14:35:01.222Z,97874.00
2023-03-14T14:36:42.702Z,97865.00
2023-03-14T14:38:21.165Z,97888.00
2023-03-14T14:39:57.443Z,97882.00
2023-03-14T14:41:34.491Z,97895.00
2023-03-14T14:43:07.925Z,97893.00
2023-03-14T14:44:41.249Z,97897.00
2023-03-14T14:46:21.628Z,97897.00
2023-03-14T14:47:59.098Z,97894.00
2023-03-14T14:49:35.070Z,97902.00
2023-03-14T14:51:09.679Z,97898.00
2023-03-14T14:52:45.819Z,97887.00
2023-03-14T14:54:33.732Z,97898.00
2023-03-14T14:56:17.455Z,97908.00
2023-03-14T14:57:53.982Z,97902.00
2023-03-14T14:59:30.357Z,97904.00
2023-03-14T15:01:12.975Z,97898.00
2023-03-14T15:02:54.870Z,97903.00
2023-03-14T15:04:31.783Z,97911.00
2023-03-14T15:06:05.994Z,97911.00
2023-03-14T15:07:39.168Z,97916.00
2023-03-14T15:09:13.257Z,97916.00
2023-03-14T15:10:47.774Z,97922.00
2023-03-14T15:12:32.814Z,97924.00
2023-03-14T15:14:11.654Z,97934.00
2023-03-14T15:15:47.138Z,97938.00
2023-03-14T15:17:20.397Z,97938.00
2023-03-14T15:18:59.616Z,97936.00
2023-03-14T15:20:37.618Z,97955.00
2023-03-14T15:22:17.436Z,97954.00
2023-03-14T15:23:51.645Z,97955.00
2023-03-14T15:25:47.427Z,97957.00
2023-03-14T15:27:20.496Z,97963.00
2023-03-14T15:28:54.647Z,97968.00
2023-03-14T15:30:27.839Z,97972.00
2023-03-14T15:32:08.844Z,97975.00
2023-03-14T15:33:52.303Z,97983.00
2023-03-14T15:35:41.996Z,97986.00
2023-03-14T15:37:23.212Z,97992.00
2023-03-14T15:39:07.639Z,97994.00
2023-03-14T15:40:56.278Z,98007.00
2023-03-14T15:42:31.492Z,98006.00
2023-03-14T15:44:05.397Z,98012.00
2023-03-14T15:45:38.518Z,98017.00
2023-03-14T15:47:12.506Z,98028.00
2023-03-14T15:48:47.514Z,98040.00
2023-03-14T15:50:20.636Z,98037.00
2023-03-14T15:51:54.091Z,98039.00
2023-03-14T15:53:27.970Z,98047.00
2023-03-14T15:55:01.065Z,98052.00
2023-03-14T15:56:34.246Z,98056.00
2023-03-14T15:58:16.138Z,98058.00
2023-03-14T15:59:49.310Z,98073.00
2023-03-14T16:01:22.598Z,98076.00
2023-03-14T16:02:55.813Z,98073.00
2023-03-14T16:04:30.440Z,98072.00
2023-03-14T16:06:03.981Z,98083.00
2023-03-14T16:07:37.513Z,98086.00
2023-03-14T16:09:10.640Z,98088.00
2023-03-14T16:10:44.323Z,98090.00
2023-03-14T16:12:17.592Z,98096.00
2023-03-14T16:13:52.374Z,98092.00
2023-03-14T16:15:26.869Z,98095.00
2023-03-14T16:17:00.561Z,98106.00
2023-03-14T16:18:36.132Z,98112.00
2023-03-14T16:20:10.473Z,98114.00
2023-03-14T16:21:43.834Z,98107.00
2023-03-14T16:23:18.326Z,98127.00
2023-03-14T16:24:51.512Z,98125.00
2023-03-14T16:26:24.705Z,98136.00
2023-03-14T16:28:10.263Z,98132.00
2023-03-14T16:29:47.432Z,98133.00
2023-03-14T16:31:23.603Z,98131.00
2023-03-14T16:32:58.390Z,98135.00
2023-03-14T16:34:31.673Z,98137.00
2023-03-14T16:36:08.934Z,98147.00
2023-03-14T16:37:42.261Z,98154.00
2023-03-14T16:39:15.831Z,98163.00
2023-03-14T16:40:59.132Z,98168.00
2023-03-14T16:42:32.285Z,98178.00
2023-03-14T16:44:05.395Z,98177.00
2023-03-14T16:45:39.923Z,98186.00
2023-03-14T16:47:13.150Z,98193.00
2023-03-14T16:48:47.067Z,98201.00
2023-03-14T16:50:20.649Z,98211.00
2023-03-14T16:51:53.862Z,98214.00
2023-03-14T16:53:29.889Z,98220.00
2023-03-14T16:55:04.137Z,98223.00
2023-03-14T16:56:37.471Z,98232.00
2023-03-14T16:58:11.187Z,98230.00
2023-03-14T16:59:44.376Z,98233.00
2023-03-14T17:01:20.893Z,98234.00
2023-03-14T17:02:54.258Z,98241.00
2023-03-14T17:04:27.523Z,98237.00
2023-03-14T17:06:00.667Z,98249.00
2023-03-14T17:07:33.741Z,98244.00
2023-03-14T17:09:07.893Z,98253.00
2023-03-14T17:10:40.991Z,98267.00
2023-03-14T17:12:14.185Z,98273.00
2023-03-14T17:13:48.079Z,98271.00
2023-03-14T17:15:21.613Z,98279.00
2023-03-14T17:16:56.290Z,98286.00
2023-03-14T17:18:31.951Z,98289.00
2023-03-14T17:20:07.800Z,98297.00
2023-03-14T17:21:41.219Z,98311.00
2023-03-14T17:23:14.268Z,98308.00
2023-03-14T17:24:47.608Z,98313.00
2023-03-14T17:26:20.785Z,98310.00
2023-03-14T17:27:53.939Z,98318.00
2023-03-14T17:29:27.012Z,98322.00
2023-03-14T17:31:08.866Z,98324.00
2023-03-14T17:32:42.410Z,98322.00
2023-03-14T17:34:19.008Z,98322.00
2023-03-14T17:35:52.265Z,98326.00
2023-03-14T17:37:25.620Z,98332.00
2023-03-14T17:38:59.132Z,98331.00
2023-03-14T17:40:35.607Z,98335.00
2023-03-14T17:42:09.184Z,98341.00
2023-03-14T17:43:42.687Z,98345.00
2023-03-14T17:45:15.985Z,98350.00
2023-03-14T17:46:49.198Z,98355.00
2023-03-14T17:48:23.933Z,98360.00
2023-03-14T17:49:57.070Z,98362.00
2023-03-14T17:51:30.189Z,98370.00
2023-03-14T17:53:04.247Z,98370.00
2023-03-14T17:54:38.569Z,98373.00
2023-03-14T17:56:12.551Z,98375.00
2023-03-14T17:57:45.674Z,98383.00
2023-03-14T17:59:18.996Z,98383.00
2023-03-14T18:00:52.443Z,98386.00
2023-03-14T18:02:26.897Z,98395.00
2023-03-14T18:04:01.826Z,98395.00
2023-03-14T18:05:35.085Z,98402.00
2023-03-14T18:07:08.311Z,98402.00
2023-03-14T18:08:43.660Z,98410.00
2023-03-14T18:10:17.398Z,98419.00
2023-03-14T18:11:58.791Z,98420.00
2023-03-14T18:13:38.404Z,98420.00
2023-03-14T18:15:14.216Z,98422.00
2023-03-14T18:16:51.559Z,98421.00
2023-03-14T18:18:25.217Z,98423.00
2023-03-14T18:19:59.662Z,98429.00
2023-03-14T18:21:32.765Z,98431.00
2023-03-14T18:23:07.014Z,98429.00
2023-03-14T18:24:40.485Z,98428.00
2023-03-14T18:26:13.811Z,98443.00
2023-03-14T18:27:46.990Z,98447.00
2023-03-14T18:29:20.049Z,98452.00
2023-03-14T18:30:53.216Z,98466.00
2023-03-14T18:32:26.680Z,98454.00
2023-03-14T18:33:59.954Z,98464.00
2023-03-14T18:35:34.639Z,98459.00
2023-03-14T18:37:07.863Z,98467.00
2023-03-14T18:38:43.087Z,98464.00
2023-03-14T18:40:17.398Z,98472.00
2023-03-14T18:41:50.629Z,98463.00
2023-03-14T18:43:23.753Z,98477.00
2023-03-14T18:44:56.955Z,98476.00
2023-03-14T18:46:31.330Z,98483.00
2023-03-14T18:48:04.921Z,98493.00
2023-03-14T18:49:38.195Z,98490.00
2023-03-14T18:51:15.800Z,98491.00
2023-03-14T18:52:49.087Z,98486.00
2023-03-14T18:54:22.136Z,98496.00
2023-03-14T18:55:55.788Z,98497.00
2023-03-14T18:57:28.992Z,98505.00
2023-03-14T18:59:02.210Z,98505.00
2023-03-14T19:00:37.125Z,98517.00
2023-03-14T19:02:10.771Z,98521.00
2023-03-14T19:03:44.562Z,98507.00
2023-03-14T19:05:17.993Z,98519.00
2023-03-14T19:06:53.945Z,98522.00
2023-03-14T19:08:29.117Z,98507.00